Time;durP1;ratioP1;P1;durP2;ratioP2;P2;SDS_P1;SDS_P2;PMS_P1;PMS_P2;Temp;Humidity;BMP_temperature;BMP_pressure;BME280_temperature;BME280_humidity;BME280_pressure;Samples;Min_cycle;Max_cycle;Signal;HPM_P1;HPM_P2
2024/03/26 00:02:08;;;;;;;17.58;2.65;;;6.90;1.00;;;;;;5040741;28;20208;-85
2024/03/26 00:04:34;;;;;;;15.10;2.23;;;7.00;1.00;;;;;;5059389;28;20166;-85
2024/03/26 00:07:00;;;;;;;14.90;2.45;;;6.90;1.00;;;;;;5040196;28;20179;-85
2024/03/26 00:09:26;;;;;;;14.03;2.27;;;6.90;1.00;;;;;;5039353;28;20201;-85
2024/03/26 00:11:51;;;;;;;15.90;2.20;;;6.90;1.00;;;;;;5058051;28;20185;-85
2024/03/26 00:14:17;;;;;;;14.87;2.23;;;6.90;1.00;;;;;;5057807;28;20168;-85
2024/03/26 00:16:43;;;;;;;17.83;2.10;;;7.00;1.00;;;;;;5057842;28;20161;-85
2024/03/26 00:19:08;;;;;;;14.63;2.20;;;6.90;1.00;;;;;;5057153;28;20188;-85
2024/03/26 00:21:35;;;;;;;13.63;2.40;;;6.90;1.00;;;;;;5038866;28;20185;-85
2024/03/26 00:24:01;;;;;;;13.60;2.00;;;6.80;1.00;;;;;;5038801;28;20252;-86
2024/03/26 00:26:26;;;;;;;13.97;2.30;;;6.70;1.00;;;;;;5056931;28;20188;-84
2024/03/26 00:28:52;;;;;;;14.87;1.77;;;6.70;1.00;;;;;;5056772;28;20169;-85
2024/03/26 00:31:18;;;;;;;14.65;2.50;;;6.70;1.00;;;;;;5038879;28;20629;-84
2024/03/26 00:33:44;;;;;;;14.97;2.50;;;6.70;1.00;;;;;;5056863;28;20161;-85
2024/03/26 00:36:10;;;;;;;17.50;2.83;;;6.70;1.00;;;;;;5038678;28;20176;-84
2024/03/26 00:38:36;;;;;;;15.30;2.75;;;6.70;1.00;;;;;;5038346;28;20193;-85
2024/03/26 00:41:02;;;;;;;16.57;2.47;;;6.80;1.00;;;;;;5038625;28;20267;-84
2024/03/26 00:43:27;;;;;;;13.97;2.23;;;6.80;1.00;;;;;;5056193;28;20634;-84
2024/03/26 00:45:53;;;;;;;13.37;1.97;;;6.70;1.00;;;;;;5056683;28;20160;-86
2024/03/26 00:48:19;;;;;;;16.37;2.23;;;6.80;1.00;;;;;;5038503;28;20252;-85
2024/03/26 00:50:44;;;;;;;16.83;3.20;;;6.80;1.00;;;;;;5056694;28;20162;-85
2024/03/26 00:53:10;;;;;;;17.57;2.80;;;6.90;1.00;;;;;;5039048;28;20565;-85
2024/03/26 00:55:36;;;;;;;17.80;2.65;;;6.90;1.00;;;;;;5038211;28;20169;-85
2024/03/26 00:58:02;;;;;;;14.60;2.07;;;6.80;1.00;;;;;;5056399;28;20557;-85
2024/03/26 01:00:27;;;;;;;15.40;2.87;;;6.80;1.00;;;;;;5055466;28;20185;-85
2024/03/26 01:02:53;;;;;;;14.03;2.40;;;6.70;1.00;;;;;;5037738;28;20255;-84
2024/03/26 01:05:32;;;;;;;19.03;2.27;;;6.80;1.00;;;;;;5038112;28;20184;-87
2024/03/26 01:07:57;;;;;;;15.30;2.65;;;6.80;1.00;;;;;;5036718;28;20161;-85
2024/03/26 01:10:23;;;;;;;15.93;2.40;;;6.70;1.00;;;;;;5056381;28;20172;-84
2024/03/26 01:12:50;;;;;;;13.80;1.90;;;6.80;1.00;;;;;;5058887;28;20185;-87
2024/03/26 01:15:16;;;;;;;14.95;2.35;;;6.80;1.00;;;;;;5042181;28;20818;-87
2024/03/26 01:17:41;;;;;;;16.23;2.60;;;6.70;1.00;;;;;;5062315;28;20169;-88
2024/03/26 01:20:08;;;;;;;18.10;3.07;;;6.80;1.00;;;;;;5062169;28;20193;-88
2024/03/26 01:22:33;;;;;;;14.68;2.00;;;6.80;1.00;;;;;;5062773;28;20192;-88
2024/03/26 01:24:59;;;;;;;16.00;2.57;;;6.80;1.00;;;;;;5062352;28;20169;-88
2024/03/26 01:27:24;;;;;;;13.00;1.87;;;6.80;1.00;;;;;;5046925;28;20169;-88
2024/03/26 01:29:50;;;;;;;15.47;2.53;;;6.80;1.00;;;;;;5062695;28;20641;-88
2024/03/26 01:32:16;;;;;;;14.20;2.47;;;6.80;1.00;;;;;;5062765;28;20189;-88
2024/03/26 01:34:41;;;;;;;14.83;2.60;;;6.70;1.00;;;;;;5044964;28;20223;-88
2024/03/26 01:37:07;;;;;;;15.97;2.03;;;6.70;1.00;;;;;;5064220;28;20165;-88
2024/03/26 01:39:33;;;;;;;19.07;2.27;;;6.80;1.00;;;;;;5062083;28;20743;-87
2024/03/26 01:41:58;;;;;;;18.23;2.43;;;6.80;1.00;;;;;;5043929;28;20191;-88
2024/03/26 01:44:27;;;;;;;14.70;2.60;;;6.80;1.00;;;;;;5062555;28;20158;-88
2024/03/26 01:46:52;;;;;;;15.75;2.15;;;6.80;1.00;;;;;;5062570;28;20252;-88
2024/03/26 01:49:18;;;;;;;15.03;2.00;;;6.80;1.00;;;;;;5062517;28;20196;-88
2024/03/26 01:51:45;;;;;;;17.77;2.27;;;6.80;1.00;;;;;;5062795;28;20281;-88
2024/03/26 01:54:12;;;;;;;14.32;1.98;;;6.80;1.00;;;;;;5062744;28;20404;-88
2024/03/26 01:56:39;;;;;;;21.73;2.60;;;6.70;1.00;;;;;;5062952;28;20161;-88
2024/03/26 01:59:06;;;;;;;22.83;2.40;;;6.80;1.00;;;;;;5044648;28;20205;-87
2024/03/26 02:01:32;;;;;;;15.93;2.35;;;6.80;1.00;;;;;;5043590;28;20185;-88
2024/03/26 02:03:57;;;;;;;15.23;2.40;;;6.80;1.00;;;;;;5043558;28;20165;-88
2024/03/26 02:06:24;;;;;;;14.13;2.00;;;6.80;1.00;;;;;;5061218;28;20164;-88
2024/03/26 02:08:51;;;;;;;16.50;2.35;;;6.80;1.00;;;;;;5043667;28;20281;-88
2024/03/26 02:11:17;;;;;;;17.70;1.80;;;6.80;1.00;;;;;;5061465;28;20255;-88
2024/03/26 02:13:46;;;;;;;15.40;2.30;;;6.80;1.00;;;;;;5061723;28;20161;-88
2024/03/26 02:16:12;;;;;;;15.48;2.63;;;6.70;1.00;;;;;;5044258;28;20442;-88
2024/03/26 02:18:38;;;;;;;13.90;2.00;;;6.80;1.00;;;;;;5044054;28;20642;-88
2024/03/26 02:21:04;;;;;;;13.73;2.43;;;6.70;1.00;;;;;;5043259;28;20185;-88
2024/03/26 02:23:30;;;;;;;22.15;1.90;;;6.80;1.00;;;;;;5042872;28;20169;-88
2024/03/26 02:25:55;;;;;;;14.82;3.00;;;6.80;1.00;;;;;;5060885;28;20165;-87
2024/03/26 02:28:21;;;;;;;14.53;1.60;;;6.80;1.00;;;;;;5060969;28;20157;-87
2024/03/26 02:30:47;;;;;;;14.10;2.30;;;6.80;1.00;;;;;;5038953;28;20538;-86
2024/03/26 02:33:12;;;;;;;17.37;2.60;;;6.80;1.00;;;;;;5038140;28;20235;-86
2024/03/26 02:35:38;;;;;;;15.53;2.57;;;6.90;1.00;;;;;;5037525;28;20256;-86
2024/03/26 02:38:04;;;;;;;14.87;2.30;;;6.80;1.00;;;;;;5037526;28;20242;-86
2024/03/26 02:40:29;;;;;;;15.33;2.37;;;6.80;1.00;;;;;;5038478;28;20185;-86
2024/03/26 02:42:56;;;;;;;13.17;1.63;;;6.90;1.00;;;;;;5037398;28;20172;-86
2024/03/26 02:45:21;;;;;;;16.70;2.20;;;6.90;1.00;;;;;;5037260;28;20606;-86
2024/03/26 02:47:47;;;;;;;17.50;2.43;;;6.90;1.00;;;;;;5037318;28;20248;-86
2024/03/26 02:50:13;;;;;;;13.50;2.67;;;6.90;1.00;;;;;;5037181;28;20707;-87
2024/03/26 02:52:38;;;;;;;15.00;3.00;;;6.90;1.00;;;;;;5037170;28;20652;-87
2024/03/26 02:55:04;;;;;;;12.60;1.70;;;6.90;1.00;;;;;;5055055;28;20176;-86
2024/03/26 02:57:30;;;;;;;18.60;2.57;;;6.90;1.00;;;;;;5054674;28;20166;-87
2024/03/26 02:59:55;;;;;;;17.80;2.83;;;6.90;1.00;;;;;;5037058;28;21029;-87
2024/03/26 03:02:21;;;;;;;14.27;2.33;;;6.90;1.00;;;;;;5036832;28;20216;-86
2024/03/26 03:04:47;;;;;;;13.63;2.20;;;7.00;1.00;;;;;;5054942;28;20623;-86
2024/03/26 03:07:12;;;;;;;15.77;2.33;;;6.90;1.00;;;;;;5036680;28;20177;-86
2024/03/26 03:09:40;;;;;;;16.93;2.47;;;6.90;1.00;;;;;;5054562;28;20173;-87
2024/03/26 03:12:06;;;;;;;14.13;2.15;;;6.90;1.00;;;;;;5036815;28;20196;-86
2024/03/26 03:14:34;;;;;;;14.70;2.37;;;6.80;1.00;;;;;;5054819;28;20598;-87
2024/03/26 03:16:59;;;;;;;17.17;2.60;;;6.90;1.00;;;;;;5054637;28;20432;-86
2024/03/26 03:19:25;;;;;;;12.67;1.73;;;6.80;1.00;;;;;;5054295;28;20696;-86
2024/03/26 03:21:51;;;;;;;13.67;2.20;;;6.90;1.00;;;;;;5054558;28;20212;-87
2024/03/26 03:24:16;;;;;;;15.47;2.30;;;6.90;1.00;;;;;;5054846;28;20165;-86
2024/03/26 03:26:42;;;;;;;15.70;3.00;;;6.90;1.00;;;;;;5054837;28;20215;-86
2024/03/26 03:29:07;;;;;;;13.50;1.83;;;6.90;1.00;;;;;;5054522;28;20211;-86
2024/03/26 03:31:33;;;;;;;13.33;2.03;;;6.90;1.00;;;;;;5036331;28;20185;-86
2024/03/26 03:33:59;;;;;;;13.20;2.10;;;6.90;1.00;;;;;;5036103;28;20577;-86
2024/03/26 03:36:24;;;;;;;19.57;2.17;;;6.90;1.00;;;;;;5036164;28;20181;-86
2024/03/26 03:38:50;;;;;;;14.30;2.53;;;6.90;1.00;;;;;;5053984;28;20185;-86
2024/03/26 03:41:16;;;;;;;14.20;3.43;;;6.90;1.00;;;;;;5053935;28;20181;-86
2024/03/26 03:43:41;;;;;;;15.37;2.33;;;6.90;1.00;;;;;;5054462;28;20670;-86
2024/03/26 03:46:13;;;;;;;16.17;2.50;;;6.90;1.00;;;;;;5055127;28;20161;-86
2024/03/26 03:48:38;;;;;;;13.93;2.25;;;6.90;1.00;;;;;;5040798;28;20629;-87
2024/03/26 03:51:04;;;;;;;13.90;2.00;;;6.90;1.00;;;;;;5059454;28;20186;-88
2024/03/26 03:53:29;;;;;;;20.33;2.73;;;6.90;1.00;;;;;;5059330;28;20249;-88
2024/03/26 03:55:55;;;;;;;13.27;2.10;;;6.90;1.00;;;;;;5041957;28;20172;-88
2024/03/26 03:58:21;;;;;;;14.40;2.00;;;6.90;1.00;;;;;;5059637;28;20192;-88
2024/03/26 04:00:46;;;;;;;13.70;2.50;;;6.90;1.00;;;;;;5059432;28;20242;-88
2024/03/26 04:03:12;;;;;;;13.30;2.07;;;6.90;1.00;;;;;;5059804;28;20238;-88
2024/03/26 04:05:38;;;;;;;15.13;2.50;;;6.90;1.00;;;;;;5059070;28;20180;-87
2024/03/26 04:08:04;;;;;;;18.03;2.67;;;6.90;1.00;;;;;;5059729;28;20169;-88
2024/03/26 04:10:39;;;;;;;13.20;2.03;;;6.80;1.00;;;;;;5041320;28;20412;-87
2024/03/26 04:13:04;;;;;;;14.38;2.70;;;6.80;1.00;;;;;;5059589;28;20380;-88
2024/03/26 04:15:30;;;;;;;12.70;1.63;;;6.80;1.00;;;;;;5059984;28;20200;-88
2024/03/26 04:17:56;;;;;;;13.80;2.03;;;6.70;1.00;;;;;;5041443;28;20173;-88
2024/03/26 04:20:21;;;;;;;15.03;1.77;;;6.70;1.00;;;;;;5059863;28;20184;-88
2024/03/26 04:22:48;;;;;;;13.73;2.10;;;6.70;1.00;;;;;;5041813;28;20189;-88
2024/03/26 04:25:14;;;;;;;15.68;2.40;;;6.70;1.00;;;;;;5059638;28;20165;-88
2024/03/26 04:27:40;;;;;;;14.23;2.40;;;6.80;1.00;;;;;;5058783;28;20514;-87
2024/03/26 04:30:08;;;;;;;14.03;2.23;;;6.70;1.00;;;;;;5042105;28;20251;-88
2024/03/26 04:32:35;;;;;;;14.93;2.05;;;6.70;1.00;;;;;;5041154;28;20837;-88
2024/03/26 04:35:01;;;;;;;13.60;1.88;;;6.70;1.00;;;;;;5059472;28;20165;-88
2024/03/26 04:37:27;;;;;;;14.85;2.80;;;6.70;1.00;;;;;;5059860;28;20256;-88
2024/03/26 04:39:52;;;;;;;14.23;2.30;;;6.70;1.00;;;;;;5041933;28;20225;-88
2024/03/26 04:42:19;;;;;;;12.93;2.30;;;6.80;1.00;;;;;;5060641;28;20252;-88
2024/03/26 04:44:45;;;;;;;15.07;1.90;;;6.80;1.00;;;;;;5041361;28;20255;-88
2024/03/26 04:47:10;;;;;;;12.90;1.83;;;6.80;1.00;;;;;;5063138;28;20219;-88
2024/03/26 04:49:36;;;;;;;13.20;1.73;;;6.80;1.00;;;;;;5063000;28;20181;-88
2024/03/26 04:52:01;;;;;;;12.87;2.17;;;6.80;1.00;;;;;;5063343;28;20192;-88
2024/03/26 04:54:28;;;;;;;13.40;1.93;;;6.80;1.00;;;;;;5045629;28;20246;-88
2024/03/26 04:56:54;;;;;;;17.05;2.17;;;6.80;1.00;;;;;;5063060;28;20169;-88
2024/03/26 04:59:19;;;;;;;14.43;2.20;;;6.80;1.00;;;;;;5044663;28;20195;-87
2024/03/26 05:01:45;;;;;;;14.60;2.47;;;6.80;1.00;;;;;;5063059;28;20217;-88
2024/03/26 05:04:11;;;;;;;16.43;2.70;;;6.70;1.00;;;;;;5061382;28;20192;-86
2024/03/26 05:06:36;;;;;;;13.37;2.43;;;6.70;1.00;;;;;;5040785;28;20161;-86
2024/03/26 05:09:04;;;;;;;13.97;1.90;;;6.70;1.00;;;;;;5058240;28;20260;-86
2024/03/26 05:11:30;;;;;;;14.13;2.70;;;6.70;1.00;;;;;;5039692;28;20193;-87
2024/03/26 05:13:55;;;;;;;15.70;2.50;;;6.80;1.00;;;;;;5058105;28;20168;-86
2024/03/26 05:16:21;;;;;;;14.20;2.03;;;6.70;1.00;;;;;;5058230;28;20176;-86
2024/03/26 05:18:47;;;;;;;14.93;1.87;;;6.70;1.00;;;;;;5058601;28;20192;-87
2024/03/26 05:21:13;;;;;;;13.40;2.20;;;6.60;1.00;;;;;;5057443;28;20239;-87
2024/03/26 05:23:39;;;;;;;17.30;2.75;;;6.50;1.00;;;;;;5039594;28;20598;-87
2024/03/26 05:26:04;;;;;;;16.17;2.73;;;6.60;1.00;;;;;;5058034;28;20168;-87
2024/03/26 05:28:30;;;;;;;15.00;2.57;;;6.60;1.00;;;;;;5057668;28;20193;-86
2024/03/26 05:31:13;;;;;;;13.80;2.43;;;6.60;1.00;;;;;;5039812;28;20196;-86
2024/03/26 05:33:39;;;;;;;14.35;2.45;;;6.60;1.00;;;;;;5057302;28;20150;-86
2024/03/26 05:36:05;;;;;;;16.00;2.30;;;6.50;1.00;;;;;;5057247;28;20241;-87
2024/03/26 05:38:30;;;;;;;14.93;2.20;;;6.50;1.00;;;;;;5039221;28;20185;-86
2024/03/26 05:40:56;;;;;;;13.90;2.63;;;6.50;1.00;;;;;;5039068;28;20211;-87
2024/03/26 05:43:22;;;;;;;12.40;1.70;;;6.60;1.00;;;;;;5039424;28;20168;-87
2024/03/26 05:45:48;;;;;;;13.27;2.23;;;6.60;1.00;;;;;;5039253;28;20988;-86
2024/03/26 05:48:13;;;;;;;13.30;1.80;;;6.60;1.00;;;;;;5057000;28;20161;-87
2024/03/26 05:50:39;;;;;;;13.40;2.30;;;6.60;1.00;;;;;;5058099;28;20168;-86
2024/03/26 05:53:06;;;;;;;13.17;2.40;;;6.60;1.00;;;;;;5057655;28;20607;-87
2024/03/26 05:55:32;;;;;;;21.77;2.58;;;6.70;1.00;;;;;;5057010;28;20581;-88
2024/03/26 05:57:58;;;;;;;13.30;2.45;;;6.70;1.00;;;;;;5037955;28;20177;-88
2024/03/26 06:00:24;;;;;;;14.30;2.03;;;6.80;1.00;;;;;;5057161;28;20732;-86
2024/03/26 06:02:49;;;;;;;14.43;2.17;;;6.80;1.00;;;;;;5039535;28;20534;-86
2024/03/26 06:05:15;;;;;;;13.53;1.87;;;6.70;1.00;;;;;;5057788;28;20623;-86
2024/03/26 06:07:41;;;;;;;13.70;2.20;;;6.80;1.00;;;;;;5057111;28;20157;-87
2024/03/26 06:10:07;;;;;;;14.98;2.40;;;6.80;1.00;;;;;;5023190;28;20235;-86
2024/03/26 06:12:33;;;;;;;15.00;3.15;;;6.80;1.00;;;;;;5057610;28;20189;-87
2024/03/26 06:15:00;;;;;;;13.93;2.37;;;6.90;1.00;;;;;;5057439;28;20191;-86
2024/03/26 06:17:25;;;;;;;13.48;2.20;;;7.00;1.00;;;;;;5057494;28;20196;-86
2024/03/26 06:19:51;;;;;;;14.10;2.47;;;7.00;1.00;;;;;;5057761;28;20185;-86
2024/03/26 06:22:16;;;;;;;13.97;2.43;;;7.00;1.00;;;;;;5041703;28;20216;-86
2024/03/26 06:24:42;;;;;;;14.33;2.17;;;7.00;1.00;;;;;;5045690;28;20164;-87
2024/03/26 06:27:08;;;;;;;13.63;1.87;;;7.20;1.00;;;;;;5045608;28;20218;-87
2024/03/26 06:29:33;;;;;;;13.17;2.03;;;7.10;1.00;;;;;;5063228;28;20165;-87
2024/03/26 06:31:59;;;;;;;13.07;2.00;;;7.20;1.00;;;;;;5043355;28;20188;-87
2024/03/26 06:34:24;;;;;;;13.97;2.80;;;7.20;1.00;;;;;;5062519;28;20168;-86
2024/03/26 06:36:51;;;;;;;15.00;1.90;;;7.10;1.00;;;;;;5061578;28;20196;-87
2024/03/26 06:39:18;;;;;;;14.45;2.35;;;7.20;1.00;;;;;;5044006;28;20231;-87
2024/03/26 06:41:44;;;;;;;14.77;2.15;;;7.20;1.00;;;;;;5061593;28;20208;-87
2024/03/26 06:44:10;;;;;;;18.50;2.20;;;7.30;1.00;;;;;;5061655;28;20165;-87
2024/03/26 06:46:35;;;;;;;15.73;2.00;;;7.30;1.00;;;;;;5043268;28;20450;-87
2024/03/26 06:49:01;;;;;;;16.17;2.20;;;7.30;1.00;;;;;;5061274;28;20161;-87
2024/03/26 06:51:27;;;;;;;13.43;2.00;;;7.30;1.00;;;;;;5043534;28;20275;-87
2024/03/26 06:53:52;;;;;;;15.27;2.40;;;7.40;1.00;;;;;;5060910;28;20543;-86
2024/03/26 06:56:20;;;;;;;15.07;2.20;;;7.50;1.00;;;;;;5043512;28;20176;-87
2024/03/26 06:58:45;;;;;;;17.67;2.20;;;7.50;1.00;;;;;;5060977;28;20161;-87
2024/03/26 07:01:12;;;;;;;14.47;2.20;;;7.50;1.00;;;;;;5061464;28;20208;-87
2024/03/26 07:03:38;;;;;;;13.93;2.50;;;7.50;1.00;;;;;;5043165;28;20169;-87
2024/03/26 07:06:06;;;;;;;13.00;2.28;;;7.50;1.00;;;;;;5060504;28;20158;-87
2024/03/26 07:08:32;;;;;;;16.75;3.03;;;7.60;1.00;;;;;;5042683;28;20541;-87
2024/03/26 07:10:58;;;;;;;13.50;2.03;;;7.60;1.00;;;;;;5060972;28;20601;-87
2024/03/26 07:13:27;;;;;;;13.27;1.90;;;7.70;1.00;;;;;;5060627;28;20264;-86
2024/03/26 07:15:53;;;;;;;14.30;2.40;;;7.70;1.00;;;;;;5061191;28;20161;-86
2024/03/26 07:18:19;;;;;;;18.13;3.35;;;7.80;1.00;;;;;;5061528;28;20166;-87
2024/03/26 07:20:46;;;;;;;14.90;2.50;;;7.80;1.00;;;;;;5061545;28;20309;-87
2024/03/26 07:23:12;;;;;;;16.80;2.17;;;7.80;1.00;;;;;;5043638;28;20399;-86
2024/03/26 07:25:37;;;;;;;15.13;2.50;;;7.80;1.00;;;;;;5061607;28;20518;-87
2024/03/26 07:28:03;;;;;;;15.70;2.50;;;7.80;1.00;;;;;;5043773;28;20403;-86
2024/03/26 07:30:29;;;;;;;12.88;2.10;;;7.90;1.00;;;;;;5042933;28;20650;-87
2024/03/26 07:32:56;;;;;;;15.37;2.63;;;7.90;1.00;;;;;;5061901;28;20180;-87
2024/03/26 07:35:25;;;;;;;14.20;2.95;;;7.90;1.00;;;;;;5062269;28;20184;-87
2024/03/26 07:37:51;;;;;;;13.52;1.90;;;7.90;1.00;;;;;;5043552;28;20184;-87
2024/03/26 07:40:17;;;;;;;14.57;2.33;;;8.00;1.00;;;;;;5060428;28;20718;-86
2024/03/26 07:42:42;;;;;;;13.93;1.93;;;8.00;1.00;;;;;;5040111;28;20223;-86
2024/03/26 07:45:09;;;;;;;13.83;2.30;;;8.00;1.00;;;;;;5040013;28;20177;-86
2024/03/26 07:47:36;;;;;;;14.52;2.17;;;8.10;1.00;;;;;;5058014;28;20165;-86
2024/03/26 07:50:01;;;;;;;14.07;2.42;;;8.10;1.00;;;;;;5057586;28;20197;-86
2024/03/26 07:52:27;;;;;;;13.07;1.70;;;8.10;1.00;;;;;;5058083;28;20189;-86
2024/03/26 07:54:53;;;;;;;13.60;2.10;;;8.10;1.00;;;;;;5057989;28;20216;-86
2024/03/26 07:57:19;;;;;;;18.47;2.63;;;8.20;1.00;;;;;;5039505;28;20172;-87
2024/03/26 07:59:44;;;;;;;13.30;1.97;;;8.30;1.00;;;;;;5057430;28;20235;-85
2024/03/26 08:02:11;;;;;;;13.47;2.40;;;8.30;1.00;;;;;;5039580;28;20189;-86
2024/03/26 08:04:37;;;;;;;13.57;2.00;;;8.40;1.00;;;;;;5057973;28;20182;-86
2024/03/26 08:07:03;;;;;;;16.73;2.17;;;8.50;1.00;;;;;;5040101;28;20176;-86
2024/03/26 08:09:30;;;;;;;14.37;2.20;;;8.60;1.00;;;;;;5057957;28;20161;-86
2024/03/26 08:11:57;;;;;;;14.15;2.47;;;8.60;1.00;;;;;;5057446;28;20213;-87
2024/03/26 08:14:22;;;;;;;14.40;2.67;;;8.60;1.00;;;;;;5057840;28;20169;-86
2024/03/26 08:16:48;;;;;;;14.80;2.10;;;8.60;1.00;;;;;;5039644;28;20165;-86
2024/03/26 08:19:14;;;;;;;16.03;2.77;;;8.60;1.00;;;;;;5039220;28;20193;-86
2024/03/26 08:21:40;;;;;;;13.00;2.13;;;8.70;1.00;;;;;;5060403;28;20259;-86
2024/03/26 08:24:05;;;;;;;16.00;2.40;;;8.70;1.00;;;;;;5043750;28;20545;-86
2024/03/26 08:26:32;;;;;;;17.60;2.50;;;8.60;1.00;;;;;;5043935;28;20894;-86
2024/03/26 08:28:58;;;;;;;12.95;2.00;;;8.60;1.00;;;;;;5043416;28;20197;-86
2024/03/26 08:31:25;;;;;;;13.55;1.95;;;8.60;1.00;;;;;;5061586;28;20193;-85
2024/03/26 08:33:50;;;;;;;19.25;2.60;;;8.60;1.00;;;;;;5043793;28;20172;-86
2024/03/26 08:36:16;;;;;;;14.90;2.20;;;8.60;1.00;;;;;;5043283;28;20165;-85
2024/03/26 08:38:42;;;;;;;13.90;2.50;;;8.70;1.00;;;;;;5061026;28;20172;-85
2024/03/26 08:41:07;;;;;;;15.67;2.40;;;8.70;1.00;;;;;;5060232;28;20678;-86
2024/03/26 08:43:33;;;;;;;14.00;2.10;;;8.70;1.00;;;;;;5042422;28;20165;-86
2024/03/26 08:45:59;;;;;;;13.30;2.00;;;8.70;1.00;;;;;;5060997;28;20165;-86
2024/03/26 08:48:25;;;;;;;13.73;2.10;;;8.70;1.00;;;;;;5059691;28;20916;-86
2024/03/26 08:50:50;;;;;;;13.40;2.33;;;8.70;1.00;;;;;;5041024;28;20566;-86
2024/03/26 08:53:16;;;;;;;13.70;2.23;;;8.70;1.00;;;;;;5059194;28;20165;-85
2024/03/26 08:55:43;;;;;;;16.40;2.40;;;8.80;1.00;;;;;;5058942;28;20168;-86
2024/03/26 08:58:08;;;;;;;13.90;2.17;;;8.80;1.00;;;;;;5041455;28;20572;-85
2024/03/26 09:00:35;;;;;;;14.30;2.83;;;8.80;1.00;;;;;;5062809;28;20216;-87
2024/03/26 09:03:01;;;;;;;12.90;1.92;;;8.90;1.00;;;;;;5048472;28;20181;-87
2024/03/26 09:05:26;;;;;;;14.77;2.70;;;9.00;1.00;;;;;;5065111;28;20189;-87
2024/03/26 09:07:52;;;;;;;15.00;2.80;;;9.00;1.00;;;;;;5065292;28;20184;-87
2024/03/26 09:10:19;;;;;;;14.73;2.30;;;9.10;1.00;;;;;;5065443;28;20173;-87
2024/03/26 09:12:45;;;;;;;17.27;2.75;;;9.00;1.00;;;;;;5065345;28;20189;-87
2024/03/26 09:15:11;;;;;;;13.23;2.10;;;9.20;1.00;;;;;;5064504;28;20170;-87
2024/03/26 09:17:39;;;;;;;13.32;2.10;;;9.20;1.00;;;;;;5047524;28;20169;-87
2024/03/26 09:20:05;;;;;;;15.20;2.15;;;9.30;1.00;;;;;;5065199;28;20228;-87
2024/03/26 09:22:32;;;;;;;13.95;2.60;;;9.40;1.00;;;;;;5064909;28;20181;-87
2024/03/26 09:25:00;;;;;;;13.25;2.20;;;9.40;1.00;;;;;;5065224;28;20153;-86
2024/03/26 09:27:26;;;;;;;15.32;2.15;;;9.50;1.00;;;;;;5046812;28;20175;-87
2024/03/26 09:29:52;;;;;;;18.90;3.00;;;9.50;1.00;;;;;;5065875;28;20184;-87
2024/03/26 09:32:20;;;;;;;14.97;2.53;;;9.50;1.00;;;;;;5046661;28;20232;-87
2024/03/26 09:34:46;;;;;;;13.35;2.20;;;9.50;1.00;;;;;;5047069;28;20169;-87
2024/03/26 09:37:20;;;;;;;16.27;2.67;;;9.50;1.00;;;;;;5065042;28;20165;-87
2024/03/26 09:39:47;;;;;;;16.58;2.75;;;9.50;1.00;;;;;;5065757;28;20451;-87
2024/03/26 09:42:15;;;;;;;17.17;2.90;;;9.60;1.00;;;;;;5047094;28;20185;-87
2024/03/26 09:44:44;;;;;;;14.80;2.60;;;9.60;1.00;;;;;;5064164;28;20184;-87
2024/03/26 09:47:10;;;;;;;15.38;2.83;;;9.40;1.00;;;;;;5046759;28;20693;-86
2024/03/26 09:49:38;;;;;;;14.50;3.08;;;9.40;1.00;;;;;;5064304;28;20169;-87
2024/03/26 09:52:09;;;;;;;14.95;2.20;;;9.40;1.00;;;;;;5047441;28;20253;-87
2024/03/26 09:54:35;;;;;;;16.45;2.40;;;9.50;1.00;;;;;;5064552;28;20196;-87
2024/03/26 09:57:01;;;;;;;13.30;2.30;;;9.60;1.00;;;;;;5064288;28;20173;-87
2024/03/26 09:59:28;;;;;;;14.90;3.58;;;9.70;1.00;;;;;;5063633;28;20197;-87
2024/03/26 10:02:00;;;;;;;17.50;3.08;;;9.80;1.00;;;;;;5064733;28;20527;-87
2024/03/26 10:04:26;;;;;;;15.32;2.55;;;9.80;1.00;;;;;;5046491;28;20158;-87
2024/03/26 10:06:57;;;;;;;17.70;2.70;;;9.90;1.00;;;;;;5064895;28;20164;-87
2024/03/26 10:09:26;;;;;;;14.23;2.47;;;10.00;1.00;;;;;;5046546;28;20187;-87
2024/03/26 10:11:55;;;;;;;14.63;2.38;;;10.10;1.00;;;;;;5065260;28;20558;-86
2024/03/26 10:14:26;;;;;;;15.32;3.15;;;10.20;1.00;;;;;;5063897;28;20157;-87
2024/03/26 10:16:52;;;;;;;13.73;2.50;;;10.30;1.00;;;;;;5047012;28;20157;-87
2024/03/26 10:19:18;;;;;;;16.23;2.70;;;10.40;1.00;;;;;;5046028;28;20204;-87
2024/03/26 10:21:47;;;;;;;14.50;2.60;;;10.40;1.00;;;;;;5062366;28;20469;-86
2024/03/26 10:24:16;;;;;;;16.33;2.85;;;10.40;1.00;;;;;;5044047;28;20200;-87
2024/03/26 10:26:48;;;;;;;14.43;2.75;;;10.40;1.00;;;;;;5062888;28;20168;-86
2024/03/26 10:29:17;;;;;;;13.32;2.35;;;10.50;1.00;;;;;;5042800;28;20222;-87
2024/03/26 10:31:47;;;;;;;14.32;2.10;;;10.40;1.00;;;;;;5043843;28;20200;-87
2024/03/26 10:34:24;;;;;;;16.02;2.65;;;10.40;1.00;;;;;;5061777;28;20185;-86
2024/03/26 10:36:52;;;;;;;14.88;2.80;;;10.40;1.00;;;;;;5063048;28;20156;-87
2024/03/26 10:39:24;;;;;;;15.95;2.90;;;10.40;1.00;;;;;;5062163;28;20228;-87
2024/03/26 10:41:52;;;;;;;13.68;2.38;;;10.40;1.00;;;;;;5041053;28;20188;-86
2024/03/26 10:44:18;;;;;;;14.73;2.20;;;10.20;1.00;;;;;;5055219;28;20168;-86
2024/03/26 10:46:45;;;;;;;17.13;2.67;;;10.20;1.00;;;;;;5055891;28;20173;-86
2024/03/26 10:49:13;;;;;;;13.45;2.08;;;10.20;1.00;;;;;;5055871;28;20169;-86
2024/03/26 10:51:40;;;;;;;14.60;2.28;;;10.30;1.00;;;;;;5056232;28;20190;-85
2024/03/26 10:54:06;;;;;;;13.55;2.05;;;10.30;1.00;;;;;;5056538;28;20666;-86
2024/03/26 10:56:33;;;;;;;13.68;2.20;;;10.40;1.00;;;;;;5056082;28;20193;-86
2024/03/26 10:58:59;;;;;;;16.00;2.38;;;10.50;1.00;;;;;;5037501;28;20207;-86
2024/03/26 11:01:30;;;;;;;16.98;2.72;;;10.70;1.00;;;;;;5042005;28;20738;-87
2024/03/26 11:03:57;;;;;;;14.88;2.50;;;10.90;1.00;;;;;;5039268;28;20169;-86
2024/03/26 11:06:23;;;;;;;16.00;2.22;;;11.10;1.00;;;;;;5055565;28;20196;-86
2024/03/26 11:08:57;;;;;;;15.50;2.83;;;11.20;1.00;;;;;;5056005;28;20638;-86
2024/03/26 11:11:23;;;;;;;13.80;2.13;;;11.40;1.00;;;;;;5037544;28;20198;-86
2024/03/26 11:13:56;;;;;;;14.47;2.40;;;11.60;1.00;;;;;;5055528;28;20537;-86
2024/03/26 11:16:41;;;;;;;14.23;2.75;;;11.90;1.00;;;;;;5055477;28;20154;-86
2024/03/26 11:19:18;;;;;;;14.55;2.20;;;12.10;1.00;;;;;;5054895;28;20161;-86
2024/03/26 11:21:48;;;;;;;15.65;2.35;;;12.20;1.00;;;;;;5037568;28;20214;-86
2024/03/26 11:24:30;;;;;;;14.98;1.90;;;12.30;1.00;;;;;;5056193;28;20168;-86
2024/03/26 11:26:58;;;;;;;16.85;2.10;;;12.30;1.00;;;;;;5037066;28;20248;-86
2024/03/26 11:29:24;;;;;;;16.88;2.65;;;12.30;1.00;;;;;;5055154;28;20184;-86
2024/03/26 11:31:50;;;;;;;18.73;2.38;;;12.40;1.00;;;;;;5037049;28;20189;-86
2024/03/26 11:34:16;;;;;;;12.65;1.85;;;12.40;1.00;;;;;;5054645;28;20191;-86
2024/03/26 11:36:42;;;;;;;14.55;2.30;;;12.40;1.00;;;;;;5037104;28;20546;-86
2024/03/26 11:39:09;;;;;;;13.00;2.10;;;12.50;1.00;;;;;;5037387;28;20185;-87
2024/03/26 11:41:35;;;;;;;16.25;2.10;;;12.30;1.00;;;;;;5056816;28;20424;-86
2024/03/26 11:44:01;;;;;;;14.90;2.05;;;12.40;1.00;;;;;;5056926;28;20165;-87
2024/03/26 11:46:27;;;;;;;14.67;2.33;;;12.50;1.00;;;;;;5057299;28;20184;-87
2024/03/26 11:49:00;;;;;;;14.17;2.37;;;12.60;1.00;;;;;;5057448;28;20428;-87
2024/03/26 11:51:27;;;;;;;13.98;2.10;;;12.40;1.00;;;;;;5057593;28;20507;-86
2024/03/26 11:53:55;;;;;;;13.68;2.00;;;12.30;1.00;;;;;;5040717;28;20197;-86
2024/03/26 11:56:20;;;;;;;13.77;2.30;;;12.50;1.00;;;;;;5058523;28;20623;-87
2024/03/26 11:58:47;;;;;;;14.60;1.90;;;12.70;1.00;;;;;;5058371;28;20181;-87
2024/03/26 12:01:15;;;;;;;14.32;2.35;;;12.70;1.00;;;;;;5039651;28;20463;-87
2024/03/26 12:04:03;;;;;;;22.02;2.85;;;12.80;1.00;;;;;;5040807;28;20169;-87
2024/03/26 12:06:31;;;;;;;13.82;2.47;;;12.90;1.00;;;;;;5040225;28;20161;-86
2024/03/26 12:08:58;;;;;;;14.75;2.30;;;13.00;1.00;;;;;;5058881;28;20165;-86
2024/03/26 12:11:25;;;;;;;13.75;2.35;;;13.10;1.00;;;;;;5041490;28;20189;-87
2024/03/26 12:13:54;;;;;;;13.45;1.77;;;13.20;1.00;;;;;;5041323;28;20511;-87
2024/03/26 12:16:21;;;;;;;13.75;2.05;;;13.10;1.00;;;;;;5038579;28;20172;-87
2024/03/26 12:18:47;;;;;;;13.45;2.25;;;13.00;1.00;;;;;;5055984;28;20157;-87
2024/03/26 12:21:13;;;;;;;15.37;2.00;;;13.00;1.00;;;;;;5056450;28;20709;-87
2024/03/26 12:23:39;;;;;;;13.70;2.20;;;13.00;1.00;;;;;;5039702;28;20637;-86
2024/03/26 12:26:04;;;;;;;15.40;2.60;;;13.00;1.00;;;;;;5055269;28;20187;-87
2024/03/26 12:28:31;;;;;;;15.23;2.23;;;13.20;1.00;;;;;;5040229;28;20173;-87
2024/03/26 12:30:56;;;;;;;12.95;2.15;;;13.10;1.00;;;;;;5039020;28;20581;-86
2024/03/26 12:33:22;;;;;;;17.40;2.23;;;13.10;1.00;;;;;;5058338;28;20244;-87
2024/03/26 12:35:47;;;;;;;14.60;2.30;;;13.10;1.00;;;;;;5058401;28;20631;-87
2024/03/26 12:38:13;;;;;;;15.40;2.53;;;13.00;1.00;;;;;;5040136;28;20585;-86
2024/03/26 12:40:39;;;;;;;15.57;2.43;;;13.10;1.00;;;;;;5041454;28;20678;-87
2024/03/26 12:43:04;;;;;;;12.37;1.60;;;13.20;1.00;;;;;;5039045;28;20683;-86
2024/03/26 12:45:30;;;;;;;15.90;2.43;;;13.20;1.00;;;;;;5056782;28;20169;-87
2024/03/26 12:47:57;;;;;;;16.63;2.57;;;13.30;1.00;;;;;;5040663;28;20172;-87
2024/03/26 12:50:22;;;;;;;14.73;2.97;;;13.40;1.00;;;;;;5041120;28;20415;-87
2024/03/26 12:52:48;;;;;;;16.37;2.93;;;13.40;1.00;;;;;;5057134;28;20177;-86